Home > Products > Valid Products > MTR

000
SAUS46 KPQR 190853
MTRREO
METAR KREO 190852Z AUTO 07003KT 07/M06 A2995 RMK AO1 SLP130
T00721056 57007





000
SAUS46 KPQR 190753
MTRREO
METAR KREO 190752Z AUTO 01004KT 07/M06 A2996 RMK AO1 SLP134
T00721061 401890022





000
SAUS46 KPQR 190653
MTRREO
METAR KREO 190652Z AUTO 36003KT 04/M09 A2996 RMK AO1 SLP141
T00441089





000
SAUS46 KPQR 190553
MTRREO
METAR KREO 190552Z AUTO 02005KT 05/M11 A2997 RMK AO1 SLP146
T00501106 10189 20050 51012





000
SAUS46 KPQR 190453
MTRREO
METAR KREO 190452Z AUTO 05007KT 09/M12 A2997 RMK AO1 SLP142
T00891117





000
SAUS46 KPQR 190353
MTRREO
METAR KREO 190352Z AUTO 03006KT 09/M13 A2995 RMK AO1 SLP137
T00891133





000
SAUS46 KPQR 190253
MTRREO
METAR KREO 190252Z AUTO 01010KT 13/M14 A2993 RMK AO1 SLP127
T01281139 53002





000
SAUS46 KPQR 190153
MTRREO
METAR KREO 190152Z AUTO 01010KT 18/M11 A2991 RMK AO1 SLP116
T01781106





000
SAUS46 KPQR 190053
MTRREO
METAR KREO 190052Z AUTO 26004KT 18/M13 A2991 RMK AO1 SLP114
T01831128





000
SAUS46 KPQR 182353
MTRREO
METAR KREO 182352Z AUTO 31009KT 19/M13 A2993 RMK AO1 SLP118
T01891128 10189 20111 56017





000
SAUS46 KPQR 182253
MTRREO
METAR KREO 182252Z AUTO VRB04KT 18/M11 A2994 RMK AO1 SLP122
T01781111





000
SAUS46 KPQR 182153
MTRREO
METAR KREO 182152Z AUTO VRB04KT 17/M06 A2996 RMK AO1 SLP129
T01721061





000
SAUS46 KPQR 182053
MTRREO
METAR KREO 182052Z AUTO VRB05KT 16/M04 A2998 RMK AO1 SLP140
T01611044 58013





000
SAUS46 KPQR 181953
MTRREO
METAR KREO 181952Z AUTO 08007KT 14/M03 A3000 RMK AO1 SLP148
T01441033





000
SAUS46 KPQR 181853
MTRREO
METAR KREO 181852Z AUTO 13/00 A3002 RMK AO1 SLP154 T01330000





000
SAUS46 KPQR 181558
MTRREO
METAR KREO 181552Z AUTO 08008KT 09/02 A3002 RMK AO1 SLP162 T00890022





000
SAUS46 KPQR 181458
MTRREO
METAR KREO 181452Z AUTO 05008KT 08/03 A3002 RMK AO1 SLP162 T00780033
53018





000
SAUS46 KPQR 181257
MTRREO
METAR KREO 181252Z AUTO 09003KT 07/03 A2997 RMK AO1 SLP128 T00670033





000
SAUS46 KPQR 181159
MTRREO
METAR KREO 181152Z AUTO 00000KT 08/04 A2996 RMK AO1 SLP122 70003
T00780044 10100 20072 53006





000
SAUS46 KPQR 181057
MTRREO
METAR KREO 181052Z AUTO 11006KT 07/04 A2995 RMK AO1 SLP120 T00720039





000
SAUS46 KPQR 180958
MTRREO
METAR KREO 180952Z AUTO 06005KT 08/03 A2994 RMK AO1 SLP115 T00780033





000
SAUS46 KPQR 180857
MTRREO
METAR KREO 180852Z AUTO 08006KT 08/03 A2994 RMK AO1 SLP115 T00780033
51014





000
SAUS46 KPQR 180758
MTRREO
METAR KREO 180752Z AUTO 10004KT 08/03 A2993 RMK AO1 SLP111 T00830028
402670006





000
SAUS46 KPQR 180700 COR
MTRREO
METAR KREO 180652Z AUTO 26007KT 09/02 A2992 RMK AO1 SLP110 T00890022





000
SAUS46 KPQR 180659 COR
MTRREO
METAR KREO 180652Z AUTO 26007KT 09/02 A2992 RMK AO1 SLP110 T00890022





000
SAUS46 KPQR 180658
MTRREO
METAR KREO 180652Z AUTO 26007KT 09/02 A2992 RMK AO1 SLP110 T00890022





000
SAUS46 KPQR 180558
MTRREO
METAR KREO 180552Z AUTO 13005KT 09/03 A2990 RMK AO1 SLP105 60003
T00940033 10239 20094 51020





000
SAUS46 KPQR 180459 COR
MTRREO
METAR KREO 180452Z AUTO 30004G14KT 09/03 A2989 RMK AO1 SLP107
T00940033





000
SAUS46 KPQR 180458 COR
MTRREO
METAR KREO 180452Z AUTO 30004G14KT 09/03 A2989 RMK AO1 SLP107
T00940033





000
SAUS46 KPQR 180458
MTRREO
METAR KREO 180452Z AUTO 30004G14KT 09/03 A2989 RMK AO1 SLP107
T00940033





000
SAUS46 KPQR 180358
MTRREO
METAR KREO 180352Z AUTO 00000KT 09/05 A2986 RMK AO1 SLP103 P0001
T00940050





000
SAUS46 KPQR 180258
MTRREO
METAR KREO 180252Z AUTO 30006KT 09/06 A2983 RMK AO1 SLP097 P0001
60002 T00940061 53047





000
SAUS46 KPQR 180158
MTRREO
METAR KREO 180152Z AUTO 29011G25KT 13/09 A2977 RMK AO1 PK WND
25032/0115 WSHFT 0126 SLP075 P0001 T01280094





000
SAUS46 KPQR 180148
MTRREO
SPECI KREO 180143Z AUTO 29020G29KT 13/08 A2976 RMK AO1 PK WND
25032/0115 WSHFT 0126 PRESRR T01330083





000
SAUS46 KPQR 180058
MTRREO
METAR KREO 180052Z AUTO 23014G26KT 22/00 A2969 RMK AO1 PK WND
22040/0019 SLP041 T02170000





000
SAUS46 KPQR 172358
MTRREO
METAR KREO 172352Z AUTO 20020G28KT 24/M03 A2967 RMK AO1 PK WND
22032/2326 SLP030 T02391028 10267 20178 56023





000
SAUS46 KPQR 172258
MTRREO
METAR KREO 172252Z AUTO 20012G26KT 24/M03 A2969 RMK AO1 PK WND
20030/2230 SLP033 T02441033





000
SAUS46 KPQR 172159
MTRREO
METAR KREO 172152Z AUTO 23013G28KT 24/M03 A2972 RMK AO1 PK WND
22028/2145 SLP041 T02391033





000
SAUS46 KPQR 172058
MTRREO
METAR KREO 172052Z AUTO 24/M02 A2975 RMK AO1 SLP050 T02441022 56030





000
SAUS46 KPQR 171958
MTRREO
METAR KREO 171952Z AUTO 22010G16KT 23/M02 A2978 RMK AO1 SLP064
T02331022





000
SAUS46 KPQR 171858
MTRREO
METAR KREO 171852Z AUTO VRB04KT 21/M03 A2981 RMK AO1 SLP074
T02111028





000
SAUS46 KPQR 171758
MTRREO
METAR KREO 171752Z AUTO VRB04KT 18/M03 A2985 RMK AO1 SLP092
T01781033 10178 20006 58020





000
SAUS46 KPQR 171659 COR
MTRREO
METAR KREO 171652Z AUTO VRB03KT 15/M03 A2988 RMK AO1 SLP103
T01501033





000
SAUS46 KPQR 171658 COR
MTRREO
METAR KREO 171652Z AUTO VRB03KT 15/M03 A2988 RMK AO1 SLP103
T01501033





000
SAUS46 KPQR 171657
MTRREO
METAR KREO 171652Z AUTO VRB03KT 15/M03 A2988 RMK AO1 SLP103
T01501033





000
SAUS46 KPQR 171558
MTRREO
METAR KREO 171552Z AUTO 34005KT 11/M04 A2990 RMK AO1 SLP117
T01061044





000
SAUS46 KPQR 171458
MTRREO
METAR KREO 171452Z AUTO VRB03KT 07/M05 A2992 RMK AO1 SLP125
T00721050 56010





000
SAUS46 KPQR 171258
MTRREO
METAR KREO 171252Z AUTO 17004KT 02/M07 A2993 RMK AO1 SLP130
T00171067





000
SAUS46 KPQR 171158
MTRREO
METAR KREO 171152Z AUTO 06004KT 01/M07 A2995 RMK AO1 SLP138
T00111067 10078 20011 56007





000
SAUS46 KPQR 171058
MTRREO
METAR KREO 171052Z AUTO 13003KT 03/M07 A2996 RMK AO1 SLP137
T00281067





000
SAUS46 KPQR 170958
MTRREO
METAR KREO 170952Z AUTO 19005KT 05/M06 A2996 RMK AO1 SLP137
T00501061





000
SAUS46 KPQR 170858
MTRREO
METAR KREO 170852Z AUTO 00000KT 07/M06 A2998 RMK AO1 SLP140
T00671056 58005





000
SAUS46 KPQR 170758
MTRREO
METAR KREO 170752Z AUTO 14009KT 06/M06 A2998 RMK AO1 SLP146
T00611056 401720011





000
SAUS46 KPQR 170658
MTRREO
METAR KREO 170652Z AUTO 13009KT 07/M06 A2999 RMK AO1 SLP150
T00721056





000
SAUS46 KPQR 170557
MTRREO
METAR KREO 170552Z AUTO 12008KT 08/M05 A2999 RMK AO1 SLP151
T00781050 10172 20061 50007





000
SAUS46 KPQR 170458
MTRREO
METAR KREO 170452Z AUTO 11007KT 09/M04 A3000 RMK AO1 SLP153
T00891044





000
SAUS46 KPQR 170358
MTRREO
METAR KREO 170352Z AUTO 06007KT 09/M05 A2999 RMK AO1 SLP152
T00941050





000
SAUS46 KPQR 170258
MTRREO
METAR KREO 170252Z AUTO 04007KT 12/M06 A2997 RMK AO1 SLP143
T01171056 53002





000
SAUS46 KPQR 170158
MTRREO
METAR KREO 170152Z AUTO 02010KT 14/M06 A2996 RMK AO1 SLP140
T01441056





000
SAUS46 KPQR 170058
MTRREO
METAR KREO 170052Z AUTO 35005G15KT 17/M06 A2995 RMK AO1 SLP136
T01671056





000
SAUS46 KPQR 162358
MTRREO
METAR KREO 162352Z AUTO 30005KT 16/M06 A2996 RMK AO1 SLP136
T01611056 10172 20100 56015





000
SAUS46 KPQR 162258
MTRREO
METAR KREO 162252Z AUTO 30007KT 260V330 17/M06 A2997 RMK AO1 SLP138
T01671056





000
SAUS46 KPQR 162158
MTRREO
METAR KREO 162152Z AUTO VRB05KT 16/M07 A2998 RMK AO1 SLP144
T01561067





000
SAUS46 KPQR 162100
MTRREO
METAR KREO 162052Z AUTO 26010KT 15/M07 A3001 RMK AO1 SLP155
T01501072 56015





000
SAUS46 KPQR 161958
MTRREO
METAR KREO 161952Z AUTO 28007KT 14/M07 A3003 RMK AO1 SLP159
T01391072





000
SAUS46 KPQR 161858
MTRREO
METAR KREO 161852Z AUTO 19004KT 12/M08 A3003 RMK AO1 SLP163
T01171083





000
SAUS46 KPQR 161758
MTRREO
METAR KREO 161752Z AUTO VRB04KT 11/M09 A3006 RMK AO1 SLP172
T01061089 10106 20011 50001





000
SAUS46 KPQR 161700
MTRREO
METAR KREO 161652Z AUTO 01005KT 09/M09 A3006 RMK AO1 SLP176
T00891089





000
SAUS46 KPQR 161558
MTRREO
METAR KREO 161552Z AUTO 02004KT 07/M08 A3006 RMK AO1 SLP177
T00721083





000
SAUS46 KPQR 161458
MTRREO
METAR KREO 161452Z AUTO 06005KT 06/M08 A3006 RMK AO1 SLP176
T00611083 50008





000
SAUS46 KPQR 161258
MTRREO
METAR KREO 161252Z AUTO 09004KT 03/M09 A3004 RMK AO1 SLP170
T00281094





000
SAUS46 KPQR 161158
MTRREO
METAR KREO 161152Z AUTO 00000KT 04/M09 A3003 RMK AO1 SLP160
T00441089 10089 20044 50002





000
SAUS46 KPQR 161058
MTRREO
METAR KREO 161052Z AUTO 00000KT 05/M09 A3004 RMK AO1 SLP165
T00501089





000
SAUS46 KPQR 160957
MTRREO
METAR KREO 160952Z AUTO 04005KT 06/M09 A3002 RMK AO1 SLP157
T00561089





    US Dept of Commerce
    National Oceanic and Atmospheric Administration
    National Weather Service
    1325 East West Highway
    Silver Spring, MD 20910
    Page Author: NWS Internet Services Team
Disclaimer
Information Quality
Credits
Glossary
Privacy Policy
Freedom of Information Act (FOIA)
About Us
Career Opportunities